sensor_id;sensor_type;location;lat;lon;timestamp;temperature;humidity
16929;DHT22;8581;47.334;11.190;2022-08-21T00:00:18;13.60;99.90
16929;DHT22;8581;47.334;11.190;2022-08-21T00:02:51;13.60;99.90
16929;DHT22;8581;47.334;11.190;2022-08-21T00:05:21;13.60;99.90
16929;DHT22;8581;47.334;11.190;2022-08-21T00:07:53;13.50;99.90
16929;DHT22;8581;47.334;11.190;2022-08-21T00:10:24;13.30;99.90
16929;DHT22;8581;47.334;11.190;2022-08-21T00:12:56;13.30;99.90
16929;DHT22;8581;47.334;11.190;2022-08-21T00:15:28;13.30;99.90
16929;DHT22;8581;47.334;11.190;2022-08-21T00:17:59;13.30;99.90
16929;DHT22;8581;47.334;11.190;2022-08-21T00:20:31;13.20;99.90
16929;DHT22;8581;47.334;11.190;2022-08-21T00:23:02;13.20;99.90
16929;DHT22;8581;47.334;11.190;2022-08-21T00:25:34;13.20;99.90
16929;DHT22;8581;47.334;11.190;2022-08-21T00:28:06;13.30;99.90
16929;DHT22;8581;47.334;11.190;2022-08-21T00:30:38;13.20;99.90
16929;DHT22;8581;47.334;11.190;2022-08-21T00:33:09;13.10;99.90
16929;DHT22;8581;47.334;11.190;2022-08-21T00:35:41;13.20;99.90
16929;DHT22;8581;47.334;11.190;2022-08-21T00:38:12;13.20;99.90
16929;DHT22;8581;47.334;11.190;2022-08-21T00:40:47;13.20;99.90
16929;DHT22;8581;47.334;11.190;2022-08-21T00:43:21;13.00;99.90
16929;DHT22;8581;47.334;11.190;2022-08-21T00:45:49;12.90;99.90
16929;DHT22;8581;47.334;11.190;2022-08-21T00:48:20;12.80;99.90
16929;DHT22;8581;47.334;11.190;2022-08-21T00:50:55;12.80;99.90
16929;DHT22;8581;47.334;11.190;2022-08-21T00:53:24;12.60;99.90
16929;DHT22;8581;47.334;11.190;2022-08-21T00:55:56;12.60;99.90
16929;DHT22;8581;47.334;11.190;2022-08-21T00:58:27;12.50;99.90
16929;DHT22;8581;47.334;11.190;2022-08-21T01:00:59;12.50;99.90
16929;DHT22;8581;47.334;11.190;2022-08-21T01:03:31;12.40;99.90
16929;DHT22;8581;47.334;11.190;2022-08-21T01:06:03;12.30;99.90
16929;DHT22;8581;47.334;11.190;2022-08-21T01:08:34;12.20;99.90
16929;DHT22;8581;47.334;11.190;2022-08-21T01:11:06;12.20;99.90
16929;DHT22;8581;47.334;11.190;2022-08-21T01:13:37;12.20;99.90
16929;DHT22;8581;47.334;11.190;2022-08-21T01:16:09;12.20;99.90
16929;DHT22;8581;47.334;11.190;2022-08-21T01:18:40;12.30;99.90
16929;DHT22;8581;47.334;11.190;2022-08-21T01:21:15;12.30;99.90
16929;DHT22;8581;47.334;11.190;2022-08-21T01:23:46;12.40;99.90
16929;DHT22;8581;47.334;11.190;2022-08-21T01:26:17;12.40;99.90
16929;DHT22;8581;47.334;11.190;2022-08-21T01:28:52;12.50;99.90
16929;DHT22;8581;47.334;11.190;2022-08-21T01:31:23;12.40;99.90
16929;DHT22;8581;47.334;11.190;2022-08-21T01:33:54;12.30;99.90
16929;DHT22;8581;47.334;11.190;2022-08-21T01:36:25;12.30;99.90
16929;DHT22;8581;47.334;11.190;2022-08-21T01:38:57;12.40;99.90
16929;DHT22;8581;47.334;11.190;2022-08-21T01:41:28;12.30;99.90
16929;DHT22;8581;47.334;11.190;2022-08-21T01:44:00;12.30;99.90
16929;DHT22;8581;47.334;11.190;2022-08-21T01:46:32;12.20;99.90
16929;DHT22;8581;47.334;11.190;2022-08-21T01:49:04;12.20;99.90
16929;DHT22;8581;47.334;11.190;2022-08-21T01:51:35;12.30;99.90
16929;DHT22;8581;47.334;11.190;2022-08-21T01:54:07;12.40;99.90
16929;DHT22;8581;47.334;11.190;2022-08-21T01:56:40;12.40;99.90
16929;DHT22;8581;47.334;11.190;2022-08-21T01:59:11;12.30;99.90
16929;DHT22;8581;47.334;11.190;2022-08-21T02:01:42;12.30;99.90
16929;DHT22;8581;47.334;11.190;2022-08-21T02:04:14;12.40;99.90
16929;DHT22;8581;47.334;11.190;2022-08-21T02:06:45;12.50;99.90
16929;DHT22;8581;47.334;11.190;2022-08-21T02:09:17;12.50;99.90
16929;DHT22;8581;47.334;11.190;2022-08-21T02:11:49;12.50;99.90
16929;DHT22;8581;47.334;11.190;2022-08-21T02:14:20;12.40;99.90
16929;DHT22;8581;47.334;11.190;2022-08-21T02:16:52;12.50;99.90
16929;DHT22;8581;47.334;11.190;2022-08-21T02:19:23;12.50;99.90
16929;DHT22;8581;47.334;11.190;2022-08-21T02:21:55;12.40;99.90
16929;DHT22;8581;47.334;11.190;2022-08-21T02:24:27;12.40;99.90
16929;DHT22;8581;47.334;11.190;2022-08-21T02:26:58;12.40;99.90
16929;DHT22;8581;47.334;11.190;2022-08-21T02:29:30;12.50;99.90
16929;DHT22;8581;47.334;11.190;2022-08-21T02:32:02;12.50;99.90
16929;DHT22;8581;47.334;11.190;2022-08-21T02:34:33;12.50;99.90
16929;DHT22;8581;47.334;11.190;2022-08-21T02:37:05;12.30;99.90
16929;DHT22;8581;47.334;11.190;2022-08-21T02:39:36;12.40;99.90
16929;DHT22;8581;47.334;11.190;2022-08-21T02:42:08;12.50;99.90
16929;DHT22;8581;47.334;11.190;2022-08-21T02:44:40;12.30;99.90
16929;DHT22;8581;47.334;11.190;2022-08-21T02:47:11;12.40;99.90
16929;DHT22;8581;47.334;11.190;2022-08-21T02:49:43;12.50;99.90
16929;DHT22;8581;47.334;11.190;2022-08-21T02:52:14;12.40;99.90
16929;DHT22;8581;47.334;11.190;2022-08-21T02:54:46;12.30;99.90
16929;DHT22;8581;47.334;11.190;2022-08-21T02:57:18;12.20;99.90
16929;DHT22;8581;47.334;11.190;2022-08-21T02:59:49;12.10;99.90
16929;DHT22;8581;47.334;11.190;2022-08-21T03:02:21;12.00;99.90
16929;DHT22;8581;47.334;11.190;2022-08-21T03:04:52;12.00;99.90
16929;DHT22;8581;47.334;11.190;2022-08-21T03:07:24;12.00;99.90
16929;DHT22;8581;47.334;11.190;2022-08-21T03:09:56;12.10;99.90
16929;DHT22;8581;47.334;11.190;2022-08-21T03:12:27;12.10;99.90
16929;DHT22;8581;47.334;11.190;2022-08-21T03:14:59;12.00;99.90
16929;DHT22;8581;47.334;11.190;2022-08-21T03:17:30;12.10;99.90
16929;DHT22;8581;47.334;11.190;2022-08-21T03:20:03;12.20;99.90
16929;DHT22;8581;47.334;11.190;2022-08-21T03:22:34;12.10;99.90
16929;DHT22;8581;47.334;11.190;2022-08-21T03:25:06;12.10;99.90
16929;DHT22;8581;47.334;11.190;2022-08-21T03:27:38;12.10;99.90
16929;DHT22;8581;47.334;11.190;2022-08-21T03:30:10;12.00;99.90
16929;DHT22;8581;47.334;11.190;2022-08-21T03:32:42;11.90;99.90
16929;DHT22;8581;47.334;11.190;2022-08-21T03:35:13;11.90;99.90
16929;DHT22;8581;47.334;11.190;2022-08-21T03:37:45;11.80;99.90
16929;DHT22;8581;47.334;11.190;2022-08-21T03:40:17;11.80;99.90
16929;DHT22;8581;47.334;11.190;2022-08-21T03:42:48;11.80;99.90
16929;DHT22;8581;47.334;11.190;2022-08-21T03:45:20;11.70;99.90
16929;DHT22;8581;47.334;11.190;2022-08-21T03:47:53;11.70;99.90
16929;DHT22;8581;47.334;11.190;2022-08-21T03:50:25;11.70;99.90
16929;DHT22;8581;47.334;11.190;2022-08-21T03:52:56;11.70;99.90
16929;DHT22;8581;47.334;11.190;2022-08-21T03:55:27;11.70;99.90
16929;DHT22;8581;47.334;11.190;2022-08-21T03:57:59;11.60;99.90
16929;DHT22;8581;47.334;11.190;2022-08-21T04:00:31;11.70;99.90
16929;DHT22;8581;47.334;11.190;2022-08-21T04:03:02;11.70;99.90
16929;DHT22;8581;47.334;11.190;2022-08-21T04:05:34;11.70;99.90
16929;DHT22;8581;47.334;11.190;2022-08-21T04:08:06;11.80;99.90
16929;DHT22;8581;47.334;11.190;2022-08-21T04:10:38;11.70;99.90
16929;DHT22;8581;47.334;11.190;2022-08-21T04:13:08;11.60;99.90
16929;DHT22;8581;47.334;11.190;2022-08-21T04:15:40;11.70;99.90
16929;DHT22;8581;47.334;11.190;2022-08-21T04:18:12;11.70;99.90
16929;DHT22;8581;47.334;11.190;2022-08-21T04:20:44;11.80;99.90
16929;DHT22;8581;47.334;11.190;2022-08-21T04:23:15;11.80;99.90
16929;DHT22;8581;47.334;11.190;2022-08-21T04:25:47;11.70;99.90
16929;DHT22;8581;47.334;11.190;2022-08-21T04:28:18;11.80;99.90
16929;DHT22;8581;47.334;11.190;2022-08-21T04:30:50;11.70;99.90
16929;DHT22;8581;47.334;11.190;2022-08-21T04:33:21;11.70;99.90
16929;DHT22;8581;47.334;11.190;2022-08-21T04:35:53;11.80;99.90
16929;DHT22;8581;47.334;11.190;2022-08-21T04:38:25;11.60;99.90
16929;DHT22;8581;47.334;11.190;2022-08-21T04:40:56;11.50;99.90
16929;DHT22;8581;47.334;11.190;2022-08-21T04:43:28;11.70;99.90
16929;DHT22;8581;47.334;11.190;2022-08-21T04:45:59;11.50;99.90
16929;DHT22;8581;47.334;11.190;2022-08-21T04:48:31;11.50;99.90
16929;DHT22;8581;47.334;11.190;2022-08-21T04:51:06;11.40;99.90
16929;DHT22;8581;47.334;11.190;2022-08-21T04:53:40;11.30;99.90
16929;DHT22;8581;47.334;11.190;2022-08-21T04:56:13;11.10;99.90
16929;DHT22;8581;47.334;11.190;2022-08-21T04:58:43;11.20;99.90
16929;DHT22;8581;47.334;11.190;2022-08-21T05:01:17;11.30;99.90
16929;DHT22;8581;47.334;11.190;2022-08-21T05:03:48;11.40;99.90
16929;DHT22;8581;47.334;11.190;2022-08-21T05:06:19;11.50;99.90
16929;DHT22;8581;47.334;11.190;2022-08-21T05:08:51;11.50;99.90
16929;DHT22;8581;47.334;11.190;2022-08-21T05:11:22;11.60;99.90
16929;DHT22;8581;47.334;11.190;2022-08-21T05:13:54;11.60;99.90
16929;DHT22;8581;47.334;11.190;2022-08-21T05:16:25;11.60;99.90
16929;DHT22;8581;47.334;11.190;2022-08-21T05:18:57;11.60;99.90
16929;DHT22;8581;47.334;11.190;2022-08-21T05:21:29;11.50;99.90
16929;DHT22;8581;47.334;11.190;2022-08-21T05:24:00;11.50;99.90
16929;DHT22;8581;47.334;11.190;2022-08-21T05:26:32;11.40;99.90
16929;DHT22;8581;47.334;11.190;2022-08-21T05:29:03;11.30;99.90
16929;DHT22;8581;47.334;11.190;2022-08-21T05:31:35;11.30;99.90
16929;DHT22;8581;47.334;11.190;2022-08-21T05:34:07;11.20;99.90
16929;DHT22;8581;47.334;11.190;2022-08-21T05:36:38;11.20;99.90
16929;DHT22;8581;47.334;11.190;2022-08-21T05:39:10;11.20;99.90
16929;DHT22;8581;47.334;11.190;2022-08-21T05:41:41;11.30;99.90
16929;DHT22;8581;47.334;11.190;2022-08-21T05:44:13;11.40;99.90
16929;DHT22;8581;47.334;11.190;2022-08-21T05:46:45;11.60;99.90
16929;DHT22;8581;47.334;11.190;2022-08-21T05:49:16;11.70;99.90
16929;DHT22;8581;47.334;11.190;2022-08-21T05:51:48;11.80;99.90
16929;DHT22;8581;47.334;11.190;2022-08-21T05:54:19;11.80;99.90
16929;DHT22;8581;47.334;11.190;2022-08-21T05:56:51;11.80;99.90
16929;DHT22;8581;47.334;11.190;2022-08-21T05:59:23;12.00;99.90
16929;DHT22;8581;47.334;11.190;2022-08-21T06:01:54;12.10;99.90
16929;DHT22;8581;47.334;11.190;2022-08-21T06:04:27;12.10;99.90
16929;DHT22;8581;47.334;11.190;2022-08-21T06:06:59;12.10;99.90
16929;DHT22;8581;47.334;11.190;2022-08-21T06:09:30;12.10;99.90
16929;DHT22;8581;47.334;11.190;2022-08-21T06:12:05;12.10;99.90
16929;DHT22;8581;47.334;11.190;2022-08-21T06:14:37;12.20;99.90
16929;DHT22;8581;47.334;11.190;2022-08-21T06:17:09;12.30;99.90
16929;DHT22;8581;47.334;11.190;2022-08-21T06:19:39;12.30;99.90
16929;DHT22;8581;47.334;11.190;2022-08-21T06:22:11;12.40;99.90
16929;DHT22;8581;47.334;11.190;2022-08-21T06:24:42;12.50;99.90
16929;DHT22;8581;47.334;11.190;2022-08-21T06:27:14;12.60;99.90
16929;DHT22;8581;47.334;11.190;2022-08-21T06:29:46;12.60;99.90
16929;DHT22;8581;47.334;11.190;2022-08-21T06:32:17;12.70;99.90
16929;DHT22;8581;47.334;11.190;2022-08-21T06:34:49;12.80;99.90
16929;DHT22;8581;47.334;11.190;2022-08-21T06:37:20;12.80;99.90
16929;DHT22;8581;47.334;11.190;2022-08-21T06:39:52;12.90;99.90
16929;DHT22;8581;47.334;11.190;2022-08-21T06:42:28;13.00;99.90
16929;DHT22;8581;47.334;11.190;2022-08-21T06:45:21;13.20;99.90
16929;DHT22;8581;47.334;11.190;2022-08-21T06:50:40;13.30;99.90
16929;DHT22;8581;47.334;11.190;2022-08-21T06:53:12;13.50;99.90
16929;DHT22;8581;47.334;11.190;2022-08-21T06:55:43;13.60;99.90
16929;DHT22;8581;47.334;11.190;2022-08-21T06:58:15;13.60;99.90
16929;DHT22;8581;47.334;11.190;2022-08-21T07:00:48;13.60;99.90
16929;DHT22;8581;47.334;11.190;2022-08-21T07:03:29;13.50;99.90
16929;DHT22;8581;47.334;11.190;2022-08-21T07:05:59;13.70;99.90
16929;DHT22;8581;47.334;11.190;2022-08-21T07:08:31;13.70;99.90
16929;DHT22;8581;47.334;11.190;2022-08-21T07:11:04;13.80;99.90
16929;DHT22;8581;47.334;11.190;2022-08-21T07:13:34;13.90;99.90
16929;DHT22;8581;47.334;11.190;2022-08-21T07:16:06;14.00;99.90
16929;DHT22;8581;47.334;11.190;2022-08-21T07:18:40;14.20;99.90
16929;DHT22;8581;47.334;11.190;2022-08-21T07:21:12;14.30;99.90
16929;DHT22;8581;47.334;11.190;2022-08-21T07:23:46;14.60;99.90
16929;DHT22;8581;47.334;11.190;2022-08-21T07:26:17;14.60;99.90
16929;DHT22;8581;47.334;11.190;2022-08-21T07:28:48;14.70;99.90
16929;DHT22;8581;47.334;11.190;2022-08-21T07:31:20;14.80;99.90
16929;DHT22;8581;47.334;11.190;2022-08-21T07:33:52;15.10;99.90
16929;DHT22;8581;47.334;11.190;2022-08-21T07:36:23;15.20;99.90
16929;DHT22;8581;47.334;11.190;2022-08-21T07:38:55;15.20;99.90
16929;DHT22;8581;47.334;11.190;2022-08-21T07:41:27;15.40;99.90
16929;DHT22;8581;47.334;11.190;2022-08-21T07:43:58;15.30;99.90
16929;DHT22;8581;47.334;11.190;2022-08-21T07:46:30;15.30;99.90
16929;DHT22;8581;47.334;11.190;2022-08-21T07:49:01;15.40;99.90
16929;DHT22;8581;47.334;11.190;2022-08-21T07:51:34;15.40;99.90
16929;DHT22;8581;47.334;11.190;2022-08-21T07:54:05;15.50;99.90
16929;DHT22;8581;47.334;11.190;2022-08-21T07:56:37;15.60;99.90
16929;DHT22;8581;47.334;11.190;2022-08-21T07:59:09;16.00;99.90
16929;DHT22;8581;47.334;11.190;2022-08-21T08:01:40;16.00;99.90
16929;DHT22;8581;47.334;11.190;2022-08-21T08:04:12;16.10;99.90
16929;DHT22;8581;47.334;11.190;2022-08-21T08:06:43;16.30;99.90
16929;DHT22;8581;47.334;11.190;2022-08-21T08:09:15;16.80;99.90
16929;DHT22;8581;47.334;11.190;2022-08-21T08:11:47;17.00;99.90
16929;DHT22;8581;47.334;11.190;2022-08-21T08:14:18;17.10;99.90
16929;DHT22;8581;47.334;11.190;2022-08-21T08:16:54;17.20;99.90
16929;DHT22;8581;47.334;11.190;2022-08-21T08:19:25;17.10;99.90
16929;DHT22;8581;47.334;11.190;2022-08-21T08:21:57;17.00;99.90
16929;DHT22;8581;47.334;11.190;2022-08-21T08:24:29;17.00;99.90
16929;DHT22;8581;47.334;11.190;2022-08-21T08:27:00;17.20;99.90
16929;DHT22;8581;47.334;11.190;2022-08-21T08:29:32;17.40;99.90
16929;DHT22;8581;47.334;11.190;2022-08-21T08:32:04;17.20;99.90
16929;DHT22;8581;47.334;11.190;2022-08-21T08:34:36;17.40;99.90
16929;DHT22;8581;47.334;11.190;2022-08-21T08:37:08;17.60;99.90
16929;DHT22;8581;47.334;11.190;2022-08-21T08:39:39;17.90;99.90
16929;DHT22;8581;47.334;11.190;2022-08-21T08:42:16;18.20;99.90
16929;DHT22;8581;47.334;11.190;2022-08-21T08:44:46;18.50;99.90
16929;DHT22;8581;47.334;11.190;2022-08-21T08:47:17;18.60;99.90
16929;DHT22;8581;47.334;11.190;2022-08-21T08:49:55;19.10;99.90
16929;DHT22;8581;47.334;11.190;2022-08-21T08:52:28;19.00;99.90
16929;DHT22;8581;47.334;11.190;2022-08-21T08:55:06;19.20;99.90
16929;DHT22;8581;47.334;11.190;2022-08-21T08:57:37;19.50;99.90
16929;DHT22;8581;47.334;11.190;2022-08-21T09:00:10;19.60;99.90
16929;DHT22;8581;47.334;11.190;2022-08-21T09:02:41;19.70;99.90
16929;DHT22;8581;47.334;11.190;2022-08-21T09:05:36;19.70;99.90
16929;DHT22;8581;47.334;11.190;2022-08-21T09:08:13;19.80;99.90
16929;DHT22;8581;47.334;11.190;2022-08-21T09:10:47;20.10;99.90
16929;DHT22;8581;47.334;11.190;2022-08-21T09:13:38;20.40;99.90
16929;DHT22;8581;47.334;11.190;2022-08-21T09:16:13;20.80;99.90
16929;DHT22;8581;47.334;11.190;2022-08-21T09:18:48;21.30;99.90
16929;DHT22;8581;47.334;11.190;2022-08-21T09:21:20;21.40;99.90
16929;DHT22;8581;47.334;11.190;2022-08-21T09:26:36;22.10;99.90
16929;DHT22;8581;47.334;11.190;2022-08-21T09:29:03;22.70;99.90
16929;DHT22;8581;47.334;11.190;2022-08-21T09:31:35;23.00;99.90
16929;DHT22;8581;47.334;11.190;2022-08-21T09:34:08;23.60;99.90
16929;DHT22;8581;47.334;11.190;2022-08-21T09:36:39;24.50;99.90
16929;DHT22;8581;47.334;11.190;2022-08-21T09:39:10;24.60;99.90
16929;DHT22;8581;47.334;11.190;2022-08-21T09:41:41;25.00;99.90
16929;DHT22;8581;47.334;11.190;2022-08-21T09:44:13;25.70;99.90
16929;DHT22;8581;47.334;11.190;2022-08-21T09:46:49;25.30;99.90
16929;DHT22;8581;47.334;11.190;2022-08-21T09:49:25;25.20;99.90
16929;DHT22;8581;47.334;11.190;2022-08-21T09:51:50;25.70;99.90
16929;DHT22;8581;47.334;11.190;2022-08-21T09:54:19;26.20;99.90
16929;DHT22;8581;47.334;11.190;2022-08-21T09:56:59;26.40;99.90
16929;DHT22;8581;47.334;11.190;2022-08-21T09:59:45;26.70;99.90
16929;DHT22;8581;47.334;11.190;2022-08-21T10:02:32;27.60;99.90
16929;DHT22;8581;47.334;11.190;2022-08-21T10:05:07;27.00;99.90
16929;DHT22;8581;47.334;11.190;2022-08-21T10:07:37;27.60;99.90
16929;DHT22;8581;47.334;11.190;2022-08-21T10:10:08;28.00;99.90
16929;DHT22;8581;47.334;11.190;2022-08-21T10:12:48;28.10;99.90
16929;DHT22;8581;47.334;11.190;2022-08-21T10:15:20;28.50;99.90
16929;DHT22;8581;47.334;11.190;2022-08-21T10:17:56;28.20;99.70
16929;DHT22;8581;47.334;11.190;2022-08-21T10:20:25;28.60;99.90
16929;DHT22;8581;47.334;11.190;2022-08-21T10:23:19;29.10;97.10
16929;DHT22;8581;47.334;11.190;2022-08-21T10:26:08;29.00;97.30
16929;DHT22;8581;47.334;11.190;2022-08-21T10:28:40;29.00;96.40
16929;DHT22;8581;47.334;11.190;2022-08-21T10:31:14;29.80;97.20
16929;DHT22;8581;47.334;11.190;2022-08-21T10:33:45;29.80;95.30
16929;DHT22;8581;47.334;11.190;2022-08-21T10:36:20;30.80;95.60
16929;DHT22;8581;47.334;11.190;2022-08-21T10:38:56;29.70;94.70
16929;DHT22;8581;47.334;11.190;2022-08-21T10:44:36;28.00;96.20
16929;DHT22;8581;47.334;11.190;2022-08-21T10:47:08;29.20;95.70
16929;DHT22;8581;47.334;11.190;2022-08-21T10:49:45;29.90;94.50
16929;DHT22;8581;47.334;11.190;2022-08-21T10:52:35;30.90;94.20
16929;DHT22;8581;47.334;11.190;2022-08-21T10:55:10;31.50;92.90
16929;DHT22;8581;47.334;11.190;2022-08-21T10:57:50;31.60;91.00
16929;DHT22;8581;47.334;11.190;2022-08-21T11:00:22;32.00;90.40
16929;DHT22;8581;47.334;11.190;2022-08-21T11:03:05;32.60;90.30
16929;DHT22;8581;47.334;11.190;2022-08-21T11:05:40;32.10;90.00
16929;DHT22;8581;47.334;11.190;2022-08-21T11:08:15;31.70;90.60
16929;DHT22;8581;47.334;11.190;2022-08-21T11:10:49;32.70;90.10
16929;DHT22;8581;47.334;11.190;2022-08-21T11:21:58;33.10;87.50
16929;DHT22;8581;47.334;11.190;2022-08-21T11:24:30;33.10;86.70
16929;DHT22;8581;47.334;11.190;2022-08-21T11:27:11;32.90;88.80
16929;DHT22;8581;47.334;11.190;2022-08-21T11:29:39;33.70;88.20
16929;DHT22;8581;47.334;11.190;2022-08-21T11:32:31;33.10;84.80
16929;DHT22;8581;47.334;11.190;2022-08-21T11:35:04;33.90;85.30
16929;DHT22;8581;47.334;11.190;2022-08-21T11:37:41;34.10;82.70
16929;DHT22;8581;47.334;11.190;2022-08-21T11:43:09;34.50;81.10
16929;DHT22;8581;47.334;11.190;2022-08-21T11:45:44;34.50;78.60
16929;DHT22;8581;47.334;11.190;2022-08-21T11:48:36;35.10;77.20
16929;DHT22;8581;47.334;11.190;2022-08-21T11:51:05;35.40;81.90
16929;DHT22;8581;47.334;11.190;2022-08-21T11:53:38;35.10;79.20
16929;DHT22;8581;47.334;11.190;2022-08-21T11:56:11;35.00;76.40
16929;DHT22;8581;47.334;11.190;2022-08-21T11:58:43;34.20;75.80
16929;DHT22;8581;47.334;11.190;2022-08-21T12:01:17;33.10;77.20
16929;DHT22;8581;47.334;11.190;2022-08-21T12:03:56;34.30;75.20
16929;DHT22;8581;47.334;11.190;2022-08-21T12:06:28;35.90;73.10
16929;DHT22;8581;47.334;11.190;2022-08-21T12:09:01;36.10;75.20
16929;DHT22;8581;47.334;11.190;2022-08-21T12:11:31;36.10;71.90
16929;DHT22;8581;47.334;11.190;2022-08-21T12:14:18;37.20;71.20
16929;DHT22;8581;47.334;11.190;2022-08-21T12:16:49;34.60;74.20
16929;DHT22;8581;47.334;11.190;2022-08-21T12:19:30;34.70;75.90
16929;DHT22;8581;47.334;11.190;2022-08-21T12:22:11;34.30;76.70
16929;DHT22;8581;47.334;11.190;2022-08-21T12:24:44;34.80;74.00
16929;DHT22;8581;47.334;11.190;2022-08-21T12:27:19;34.60;75.10
16929;DHT22;8581;47.334;11.190;2022-08-21T12:29:54;35.30;74.70
16929;DHT22;8581;47.334;11.190;2022-08-21T12:32:25;36.60;71.40
16929;DHT22;8581;47.334;11.190;2022-08-21T12:35:12;36.50;73.80
16929;DHT22;8581;47.334;11.190;2022-08-21T12:37:40;38.50;68.90
16929;DHT22;8581;47.334;11.190;2022-08-21T12:40:14;37.90;68.50
16929;DHT22;8581;47.334;11.190;2022-08-21T12:42:44;38.10;67.90
16929;DHT22;8581;47.334;11.190;2022-08-21T12:45:21;38.30;64.80
16929;DHT22;8581;47.334;11.190;2022-08-21T12:47:55;38.70;66.00
16929;DHT22;8581;47.334;11.190;2022-08-21T12:51:06;39.30;63.70
16929;DHT22;8581;47.334;11.190;2022-08-21T12:53:29;40.00;62.20
16929;DHT22;8581;47.334;11.190;2022-08-21T12:56:02;40.10;63.60
16929;DHT22;8581;47.334;11.190;2022-08-21T12:58:32;39.70;61.10
16929;DHT22;8581;47.334;11.190;2022-08-21T13:01:13;37.60;64.60
16929;DHT22;8581;47.334;11.190;2022-08-21T13:03:39;37.60;65.00
16929;DHT22;8581;47.334;11.190;2022-08-21T13:06:14;39.10;65.60
16929;DHT22;8581;47.334;11.190;2022-08-21T13:08:46;40.30;61.50
16929;DHT22;8581;47.334;11.190;2022-08-21T13:11:18;40.60;56.90
16929;DHT22;8581;47.334;11.190;2022-08-21T13:13:49;39.00;60.90
16929;DHT22;8581;47.334;11.190;2022-08-21T13:16:22;40.00;61.00
16929;DHT22;8581;47.334;11.190;2022-08-21T13:18:54;38.40;60.30
16929;DHT22;8581;47.334;11.190;2022-08-21T13:21:28;39.10;59.90
16929;DHT22;8581;47.334;11.190;2022-08-21T13:26:41;41.90;57.70
16929;DHT22;8581;47.334;11.190;2022-08-21T13:29:15;42.40;56.20
16929;DHT22;8581;47.334;11.190;2022-08-21T13:31:50;42.80;54.70
16929;DHT22;8581;47.334;11.190;2022-08-21T13:34:21;41.50;53.70
16929;DHT22;8581;47.334;11.190;2022-08-21T13:36:52;41.30;55.60
16929;DHT22;8581;47.334;11.190;2022-08-21T13:39:23;40.40;54.30
16929;DHT22;8581;47.334;11.190;2022-08-21T13:41:55;38.40;54.80
16929;DHT22;8581;47.334;11.190;2022-08-21T13:44:46;35.10;58.60
16929;DHT22;8581;47.334;11.190;2022-08-21T13:47:16;33.50;62.60
16929;DHT22;8581;47.334;11.190;2022-08-21T13:49:49;34.40;65.10
16929;DHT22;8581;47.334;11.190;2022-08-21T13:52:21;36.40;64.10
16929;DHT22;8581;47.334;11.190;2022-08-21T13:54:55;38.30;61.50
16929;DHT22;8581;47.334;11.190;2022-08-21T13:57:30;38.60;60.20
16929;DHT22;8581;47.334;11.190;2022-08-21T14:02:45;36.00;62.20
16929;DHT22;8581;47.334;11.190;2022-08-21T14:05:19;32.80;64.60
16929;DHT22;8581;47.334;11.190;2022-08-21T14:07:49;31.30;68.40
16929;DHT22;8581;47.334;11.190;2022-08-21T14:10:21;31.20;68.10
16929;DHT22;8581;47.334;11.190;2022-08-21T14:12:55;30.00;71.20
16929;DHT22;8581;47.334;11.190;2022-08-21T14:15:26;29.80;73.80
16929;DHT22;8581;47.334;11.190;2022-08-21T14:18:09;31.20;68.90
16929;DHT22;8581;47.334;11.190;2022-08-21T14:20:39;30.20;71.90
16929;DHT22;8581;47.334;11.190;2022-08-21T14:23:10;30.30;70.50
16929;DHT22;8581;47.334;11.190;2022-08-21T14:25:43;31.90;71.80
16929;DHT22;8581;47.334;11.190;2022-08-21T14:28:23;33.50;69.30
16929;DHT22;8581;47.334;11.190;2022-08-21T14:30:55;35.90;64.00
16929;DHT22;8581;47.334;11.190;2022-08-21T14:33:27;37.20;63.00
16929;DHT22;8581;47.334;11.190;2022-08-21T14:35:57;35.70;61.30
16929;DHT22;8581;47.334;11.190;2022-08-21T14:38:29;34.10;63.60
16929;DHT22;8581;47.334;11.190;2022-08-21T14:41:03;35.10;63.90
16929;DHT22;8581;47.334;11.190;2022-08-21T14:43:32;34.80;65.60
16929;DHT22;8581;47.334;11.190;2022-08-21T14:46:04;36.30;64.20
16929;DHT22;8581;47.334;11.190;2022-08-21T14:48:35;37.40;59.30
16929;DHT22;8581;47.334;11.190;2022-08-21T14:51:07;37.80;59.80
16929;DHT22;8581;47.334;11.190;2022-08-21T14:53:39;38.50;59.80
16929;DHT22;8581;47.334;11.190;2022-08-21T14:56:10;38.70;60.90
16929;DHT22;8581;47.334;11.190;2022-08-21T14:58:44;35.10;62.10
16929;DHT22;8581;47.334;11.190;2022-08-21T15:01:15;36.30;61.70
16929;DHT22;8581;47.334;11.190;2022-08-21T15:03:47;36.50;61.70
16929;DHT22;8581;47.334;11.190;2022-08-21T15:06:18;37.40;59.20
16929;DHT22;8581;47.334;11.190;2022-08-21T15:08:49;37.70;61.70
16929;DHT22;8581;47.334;11.190;2022-08-21T15:11:21;37.50;59.50
16929;DHT22;8581;47.334;11.190;2022-08-21T15:13:55;38.80;58.70
16929;DHT22;8581;47.334;11.190;2022-08-21T15:16:26;38.30;59.40
16929;DHT22;8581;47.334;11.190;2022-08-21T15:18:57;36.80;60.80
16929;DHT22;8581;47.334;11.190;2022-08-21T15:21:28;37.80;59.70
16929;DHT22;8581;47.334;11.190;2022-08-21T15:24:00;37.50;58.50
16929;DHT22;8581;47.334;11.190;2022-08-21T15:26:31;34.90;62.10
16929;DHT22;8581;47.334;11.190;2022-08-21T15:29:04;34.80;62.40
16929;DHT22;8581;47.334;11.190;2022-08-21T15:31:35;35.70;61.10
16929;DHT22;8581;47.334;11.190;2022-08-21T15:34:06;36.40;60.80
16929;DHT22;8581;47.334;11.190;2022-08-21T15:36:38;37.30;59.30
16929;DHT22;8581;47.334;11.190;2022-08-21T15:39:09;36.70;59.70
16929;DHT22;8581;47.334;11.190;2022-08-21T15:41:41;36.90;60.00
16929;DHT22;8581;47.334;11.190;2022-08-21T15:44:13;37.40;58.80
16929;DHT22;8581;47.334;11.190;2022-08-21T15:46:44;37.80;58.90
16929;DHT22;8581;47.334;11.190;2022-08-21T15:49:16;38.10;58.40
16929;DHT22;8581;47.334;11.190;2022-08-21T15:51:47;38.50;58.50
16929;DHT22;8581;47.334;11.190;2022-08-21T15:54:21;37.60;59.10
16929;DHT22;8581;47.334;11.190;2022-08-21T15:56:55;38.00;58.30
16929;DHT22;8581;47.334;11.190;2022-08-21T15:59:27;37.40;59.20
16929;DHT22;8581;47.334;11.190;2022-08-21T16:01:58;35.80;61.40
16929;DHT22;8581;47.334;11.190;2022-08-21T16:04:30;34.80;63.30
16929;DHT22;8581;47.334;11.190;2022-08-21T16:07:02;34.00;63.60
16929;DHT22;8581;47.334;11.190;2022-08-21T16:09:33;35.00;61.80
16929;DHT22;8581;47.334;11.190;2022-08-21T16:12:06;34.20;62.60
16929;DHT22;8581;47.334;11.190;2022-08-21T16:14:37;33.60;65.20
16929;DHT22;8581;47.334;11.190;2022-08-21T16:17:08;34.20;64.20
16929;DHT22;8581;47.334;11.190;2022-08-21T16:19:40;35.20;65.10
16929;DHT22;8581;47.334;11.190;2022-08-21T16:22:12;34.80;62.70
16929;DHT22;8581;47.334;11.190;2022-08-21T16:24:44;35.10;62.90
16929;DHT22;8581;47.334;11.190;2022-08-21T16:27:15;34.60;63.70
16929;DHT22;8581;47.334;11.190;2022-08-21T16:29:46;35.00;61.20